createdAt,value
2019-05-05T00:01:14.728Z,21.02
2019-05-05T00:03:47.852Z,20.95
2019-05-05T00:06:19.955Z,20.91
2019-05-05T00:08:51.712Z,20.84
2019-05-05T00:11:36.688Z,20.79
2019-05-05T00:14:12.340Z,20.74
2019-05-05T00:16:48.403Z,20.65
2019-05-05T00:19:30.663Z,20.58
2019-05-05T00:21:52.749Z,20.50
2019-05-05T00:24:24.446Z,20.54
2019-05-05T00:26:55.864Z,20.59
2019-05-05T00:29:27.257Z,20.66
2019-05-05T00:31:58.836Z,20.66
2019-05-05T00:34:30.443Z,20.66
2019-05-05T00:37:04.450Z,20.65
2019-05-05T00:39:34.883Z,20.57
2019-05-05T00:42:06.804Z,20.49
2019-05-05T00:44:37.993Z,20.44
2019-05-05T00:47:29.621Z,20.40
2019-05-05T00:50:02.135Z,20.37
2019-05-05T00:52:35.174Z,20.33
2019-05-05T00:55:09.737Z,20.25
2019-05-05T00:57:41.271Z,20.20
2019-05-05T01:00:20.364Z,20.14
2019-05-05T01:02:54.166Z,20.12
2019-05-05T01:05:34.394Z,20.09
2019-05-05T01:08:07.664Z,20.10
2019-05-05T01:10:39.432Z,20.06
2019-05-05T01:13:11.165Z,20.00
2019-05-05T01:15:42.445Z,19.97
2019-05-05T01:18:15.243Z,19.93
2019-05-05T01:20:46.678Z,19.93
2019-05-05T01:23:18.307Z,19.90
2019-05-05T01:25:51.350Z,19.87
2019-05-05T01:28:24.938Z,19.80
2019-05-05T01:30:57.388Z,19.81
2019-05-05T01:33:39.622Z,19.84
2019-05-05T01:36:10.918Z,19.81
2019-05-05T01:38:56.202Z,19.79
2019-05-05T01:41:34.892Z,19.75
2019-05-05T01:44:06.439Z,19.64
2019-05-05T01:46:38.017Z,19.59
2019-05-05T01:49:09.545Z,19.56
2019-05-05T01:51:41.057Z,19.58
2019-05-05T01:54:14.466Z,19.61
2019-05-05T01:56:45.754Z,19.61
2019-05-05T01:59:17.318Z,19.63
2019-05-05T02:01:50.504Z,19.68
2019-05-05T02:04:21.974Z,19.68
2019-05-05T02:06:54.956Z,19.74
2019-05-05T02:09:26.712Z,19.74
2019-05-05T02:11:57.995Z,19.72
2019-05-05T02:14:29.496Z,19.67
2019-05-05T02:17:01.114Z,19.65
2019-05-05T02:19:32.423Z,19.57
2019-05-05T02:22:05.333Z,19.53
2019-05-05T02:24:36.874Z,19.46
2019-05-05T02:27:08.631Z,19.43
2019-05-05T02:29:44.749Z,19.40
2019-05-05T02:32:25.739Z,19.41
2019-05-05T02:34:58.257Z,19.40
2019-05-05T02:37:29.406Z,19.44
2019-05-05T02:40:04.329Z,19.48
2019-05-05T02:42:35.472Z,19.52
2019-05-05T02:45:08.479Z,19.58
2019-05-05T02:47:45.108Z,19.62
2019-05-05T02:50:17.011Z,19.64
2019-05-05T02:52:48.390Z,19.67
2019-05-05T02:55:19.630Z,19.72
2019-05-05T02:57:51.175Z,19.78
2019-05-05T03:00:24.496Z,19.85
2019-05-05T03:02:57.679Z,19.95
2019-05-05T03:05:29.233Z,20.03
2019-05-05T03:08:00.496Z,20.13
2019-05-05T03:10:33.865Z,20.24
2019-05-05T03:13:05.026Z,20.30
2019-05-05T03:15:50.725Z,20.39
2019-05-05T03:18:24.564Z,20.47
2019-05-05T03:21:04.366Z,20.55
2019-05-05T03:23:28.652Z,20.64
2019-05-05T03:26:01.328Z,20.77
2019-05-05T03:28:40.397Z,20.85
2019-05-05T03:31:15.583Z,20.96
2019-05-05T03:33:46.372Z,21.04
2019-05-05T03:36:17.915Z,21.08
2019-05-05T03:38:49.990Z,21.15
2019-05-05T03:41:23.853Z,21.23
2019-05-05T03:44:09.792Z,21.32
2019-05-05T03:46:41.448Z,21.42
2019-05-05T03:49:13.980Z,21.55
2019-05-05T03:51:45.382Z,21.03
2019-05-05T03:54:16.932Z,21.48
2019-05-05T03:56:49.996Z,21.72
2019-05-05T03:59:21.795Z,21.85
2019-05-05T04:02:09.881Z,21.97
2019-05-05T04:04:46.037Z,22.08
2019-05-05T04:07:17.582Z,22.17
2019-05-05T04:09:50.443Z,22.22
2019-05-05T04:12:24.206Z,22.24
2019-05-05T04:14:55.604Z,22.33
2019-05-05T04:17:28.780Z,22.39
2019-05-05T04:20:03.800Z,22.46
2019-05-05T04:22:35.086Z,22.54
2019-05-05T04:25:06.651Z,22.55
2019-05-05T04:27:38.195Z,22.64
2019-05-05T04:30:09.700Z,22.76
2019-05-05T04:32:41.314Z,22.90
2019-05-05T04:35:14.054Z,22.98
2019-05-05T04:37:45.331Z,23.12
2019-05-05T04:40:16.919Z,23.35
2019-05-05T04:42:48.669Z,23.35
2019-05-05T04:45:20.659Z,23.41
2019-05-05T04:47:56.716Z,23.56
2019-05-05T04:50:37.186Z,23.67
2019-05-05T04:53:10.413Z,23.77
2019-05-05T04:55:44.282Z,23.82
2019-05-05T04:58:15.588Z,23.74
2019-05-05T05:00:47.480Z,23.85
2019-05-05T05:03:26.811Z,23.98
2019-05-05T05:06:00.266Z,24.07
2019-05-05T05:08:33.771Z,24.17
2019-05-05T05:11:05.813Z,24.18
2019-05-05T05:13:37.293Z,24.34
2019-05-05T05:16:08.853Z,24.42
2019-05-05T05:18:41.103Z,24.62
2019-05-05T05:21:14.656Z,24.81
2019-05-05T05:23:46.072Z,24.82
2019-05-05T05:26:17.774Z,24.81
2019-05-05T05:28:49.907Z,24.85
2019-05-05T05:31:24.334Z,25.09
2019-05-05T05:33:55.682Z,25.13
2019-05-05T05:36:27.246Z,25.35
2019-05-05T05:39:16.946Z,25.43
2019-05-05T05:41:49.260Z,25.30
2019-05-05T05:44:29.224Z,25.55
2019-05-05T05:47:05.726Z,25.46
2019-05-05T05:49:43.880Z,25.62
2019-05-05T05:52:19.082Z,25.76
2019-05-05T05:54:48.584Z,25.55
2019-05-05T05:57:19.950Z,25.99
2019-05-05T05:59:51.691Z,26.20
2019-05-05T06:02:24.215Z,26.36
2019-05-05T06:04:55.943Z,26.43
2019-05-05T06:07:27.618Z,26.50
2019-05-05T06:09:59.263Z,26.64
2019-05-05T06:12:31.035Z,26.54
2019-05-05T06:15:03.842Z,26.70
2019-05-05T06:17:35.136Z,26.80
2019-05-05T06:20:06.745Z,26.76
2019-05-05T06:22:38.212Z,26.89
2019-05-05T06:25:09.698Z,26.99
2019-05-05T06:27:41.088Z,26.88
2019-05-05T06:30:13.828Z,26.97
2019-05-05T06:32:45.774Z,27.02
2019-05-05T06:35:17.386Z,27.13
2019-05-05T06:37:54.758Z,27.29
2019-05-05T06:40:27.770Z,27.46
2019-05-05T06:43:07.057Z,27.53
2019-05-05T06:45:40.695Z,27.76
2019-05-05T06:48:13.570Z,27.63
2019-05-05T06:50:44.997Z,27.81
2019-05-05T06:53:16.417Z,27.83
2019-05-05T06:55:47.828Z,28.19
2019-05-05T06:58:19.216Z,28.34
2019-05-05T07:00:54.267Z,28.39
2019-05-05T07:03:25.608Z,28.42
2019-05-05T07:05:56.952Z,28.29
2019-05-05T07:08:29.063Z,28.07
2019-05-05T07:11:00.974Z,28.25
2019-05-05T07:13:33.936Z,28.44
2019-05-05T07:16:05.363Z,28.69
2019-05-05T07:18:36.694Z,28.66
2019-05-05T07:21:09.393Z,28.79
2019-05-05T07:23:40.743Z,29.00
2019-05-05T07:26:14.429Z,29.15
2019-05-05T07:28:47.022Z,29.15
2019-05-05T07:31:18.502Z,29.31
2019-05-05T07:33:50.500Z,29.40
2019-05-05T07:36:44.320Z,29.37
2019-05-05T07:39:14.810Z,29.39
2019-05-05T07:41:46.613Z,29.28
2019-05-05T07:44:28.325Z,29.18
2019-05-05T07:46:51.102Z,29.42
2019-05-05T07:49:24.348Z,29.50
2019-05-05T07:51:56.776Z,29.55
2019-05-05T07:54:28.521Z,29.51
2019-05-05T07:57:00.067Z,29.43
2019-05-05T07:59:33.989Z,29.74
2019-05-05T08:02:05.532Z,29.65
2019-05-05T08:04:37.101Z,29.59
2019-05-05T08:07:08.556Z,29.78
2019-05-05T08:09:40.938Z,29.64
2019-05-05T08:12:13.728Z,30.07
2019-05-05T08:14:46.938Z,30.35
2019-05-05T08:17:23.447Z,30.56
2019-05-05T08:19:56.289Z,30.66
2019-05-05T08:22:28.108Z,30.68
2019-05-05T08:25:12.028Z,30.35
2019-05-05T08:28:04.636Z,30.78
2019-05-05T08:30:37.671Z,31.01
2019-05-05T08:33:09.555Z,31.12
2019-05-05T08:35:41.128Z,31.26
2019-05-05T08:38:13.778Z,31.23
2019-05-05T08:40:46.120Z,31.03
2019-05-05T08:43:17.464Z,30.88
2019-05-05T08:45:50.915Z,30.79
2019-05-05T08:48:24.661Z,30.76
2019-05-05T08:50:56.970Z,30.59
2019-05-05T08:53:41.519Z,30.92
2019-05-05T08:56:04.107Z,31.62
2019-05-05T08:58:36.106Z,31.72
2019-05-05T09:01:07.283Z,31.63
2019-05-05T09:03:38.516Z,31.55
2019-05-05T09:06:10.067Z,31.52
2019-05-05T09:08:41.563Z,31.87
2019-05-05T09:11:14.061Z,32.00
2019-05-05T09:13:45.662Z,31.67
2019-05-05T09:16:17.545Z,31.90
2019-05-05T09:18:59.040Z,32.01
2019-05-05T09:21:31.638Z,32.49
2019-05-05T09:24:24.853Z,32.80
2019-05-05T09:27:06.435Z,33.22
2019-05-05T09:29:39.511Z,33.46
2019-05-05T09:32:13.734Z,33.29
2019-05-05T09:34:45.770Z,33.43
2019-05-05T09:37:17.167Z,33.66
2019-05-05T09:39:48.615Z,33.85
2019-05-05T09:42:19.978Z,33.68
2019-05-05T09:44:54.179Z,33.28
2019-05-05T09:47:25.335Z,32.93
2019-05-05T09:49:56.829Z,33.44
2019-05-05T09:52:28.449Z,33.33
2019-05-05T09:54:59.821Z,33.03
2019-05-05T09:57:31.157Z,33.50
2019-05-05T10:00:10.019Z,33.95
2019-05-05T10:02:41.348Z,34.30
2019-05-05T10:05:14.497Z,34.43
2019-05-05T10:07:46.094Z,34.62
2019-05-05T10:10:19.384Z,34.15
2019-05-05T10:12:52.446Z,34.57
2019-05-05T10:15:23.623Z,34.85
2019-05-05T10:17:55.182Z,34.82
2019-05-05T10:20:26.437Z,34.12
2019-05-05T10:22:57.784Z,33.51
2019-05-05T10:25:34.964Z,33.73
2019-05-05T10:28:06.433Z,33.71
2019-05-05T10:30:37.703Z,34.07
2019-05-05T10:33:09.234Z,34.42
2019-05-05T10:35:40.321Z,35.32
2019-05-05T10:38:11.679Z,35.81
2019-05-05T10:40:44.642Z,35.62
2019-05-05T10:43:15.979Z,34.78
2019-05-05T10:45:47.059Z,34.47
2019-05-05T10:48:18.367Z,34.57
2019-05-05T10:50:49.743Z,35.45
2019-05-05T10:53:21.311Z,36.04
2019-05-05T10:55:53.973Z,36.52
2019-05-05T10:58:26.524Z,36.25
2019-05-05T11:01:00.028Z,36.23
2019-05-05T11:03:31.754Z,36.61
2019-05-05T11:06:04.488Z,36.27
2019-05-05T11:08:36.246Z,35.83
2019-05-05T11:11:07.864Z,35.57
2019-05-05T11:13:42.732Z,35.53
2019-05-05T11:16:14.653Z,35.44
2019-05-05T11:18:47.640Z,35.22
2019-05-05T11:21:19.200Z,34.74
2019-05-05T11:23:51.234Z,34.37
2019-05-05T11:26:24.546Z,34.23
2019-05-05T11:28:55.881Z,34.51
2019-05-05T11:31:27.437Z,34.47
2019-05-05T11:34:00.776Z,34.58
2019-05-05T11:36:36.837Z,34.30
2019-05-05T11:39:08.676Z,34.43
2019-05-05T11:41:44.056Z,34.16
2019-05-05T11:44:16.826Z,34.11
2019-05-05T11:46:51.370Z,34.92
2019-05-05T11:49:24.438Z,36.02
2019-05-05T11:51:56.723Z,37.08
2019-05-05T11:54:28.989Z,38.06
2019-05-05T11:57:00.871Z,37.06
2019-05-05T11:59:32.868Z,37.54
2019-05-05T12:02:05.617Z,37.46
2019-05-05T12:04:37.236Z,37.22
2019-05-05T12:07:09.306Z,36.91
2019-05-05T12:09:44.423Z,37.44
2019-05-05T12:12:16.213Z,38.38
2019-05-05T12:14:48.301Z,38.36
2019-05-05T12:17:35.384Z,37.11
2019-05-05T12:20:08.350Z,37.09
2019-05-05T12:22:41.496Z,36.54
2019-05-05T12:25:30.695Z,36.10
2019-05-05T12:28:06.927Z,35.63
2019-05-05T12:30:38.581Z,34.69
2019-05-05T12:33:10.299Z,34.85
2019-05-05T12:35:41.676Z,35.20
2019-05-05T12:38:12.974Z,36.59
2019-05-05T12:40:44.347Z,36.89
2019-05-05T12:43:16.055Z,37.02
2019-05-05T12:45:58.170Z,36.97
2019-05-05T12:48:37.469Z,37.90
2019-05-05T12:51:08.761Z,38.92
2019-05-05T12:53:41.214Z,40.26
2019-05-05T12:56:14.570Z,40.00
2019-05-05T12:58:47.107Z,39.27
2019-05-05T13:01:24.558Z,38.28
2019-05-05T13:03:55.920Z,37.34
2019-05-05T13:06:27.164Z,36.07
2019-05-05T13:08:58.491Z,36.06
2019-05-05T13:11:29.838Z,37.91
2019-05-05T13:14:03.514Z,39.53
2019-05-05T13:16:35.002Z,40.26
2019-05-05T13:19:08.441Z,40.53
2019-05-05T13:21:54.232Z,41.12
2019-05-05T13:24:31.196Z,40.37
2019-05-05T13:27:10.284Z,39.65
2019-05-05T13:29:39.092Z,39.46
2019-05-05T13:32:10.440Z,39.30
2019-05-05T13:34:43.886Z,38.67
2019-05-05T13:37:15.383Z,37.51
2019-05-05T13:39:47.968Z,36.18
2019-05-05T13:42:19.529Z,35.78
2019-05-05T13:45:07.937Z,35.35
2019-05-05T13:47:39.834Z,34.79
2019-05-05T13:50:15.623Z,34.73
2019-05-05T13:52:47.729Z,34.79
2019-05-05T13:55:19.921Z,34.89
2019-05-05T13:57:51.163Z,34.79
2019-05-05T14:00:22.552Z,34.71
2019-05-05T14:02:54.506Z,34.35
2019-05-05T14:05:26.739Z,34.60
2019-05-05T14:07:58.908Z,36.51
2019-05-05T14:10:30.354Z,37.92
2019-05-05T14:13:03.741Z,39.49
2019-05-05T14:15:34.830Z,40.10
2019-05-05T14:18:06.186Z,40.86
2019-05-05T14:20:38.717Z,41.41
2019-05-05T14:23:09.889Z,40.70
2019-05-05T14:25:41.519Z,39.91
2019-05-05T14:28:14.138Z,40.17
2019-05-05T14:30:58.946Z,40.42
2019-05-05T14:33:34.030Z,40.02
2019-05-05T14:36:09.949Z,40.02
2019-05-05T14:38:46.011Z,40.53
2019-05-05T14:41:17.565Z,40.64
2019-05-05T14:43:49.126Z,40.06
2019-05-05T14:46:23.375Z,40.45
2019-05-05T14:48:54.359Z,40.34
2019-05-05T14:51:25.639Z,41.35
2019-05-05T14:53:57.289Z,41.39
2019-05-05T14:56:36.149Z,41.26
2019-05-05T14:59:03.589Z,40.40
2019-05-05T15:01:34.560Z,40.57
2019-05-05T15:04:05.861Z,40.88
2019-05-05T15:06:38.647Z,40.99
2019-05-05T15:09:13.768Z,40.68
2019-05-05T15:11:53.853Z,40.36
2019-05-05T15:14:26.420Z,40.33
2019-05-05T15:16:57.963Z,39.94
2019-05-05T15:19:29.604Z,40.89
2019-05-05T15:22:01.243Z,41.18
2019-05-05T15:24:33.595Z,41.50
2019-05-05T15:27:04.932Z,41.61
2019-05-05T15:29:36.544Z,41.69
2019-05-05T15:32:07.994Z,41.58
2019-05-05T15:34:39.104Z,41.48
2019-05-05T15:37:10.698Z,41.57
2019-05-05T15:39:41.809Z,41.55
2019-05-05T15:42:13.589Z,41.47
2019-05-05T15:44:44.839Z,40.79
2019-05-05T15:47:16.393Z,40.32
2019-05-05T15:49:47.636Z,40.33
2019-05-05T15:52:20.211Z,40.22
2019-05-05T15:54:51.667Z,40.09
2019-05-05T15:57:24.103Z,39.81
2019-05-05T15:59:55.592Z,39.63
2019-05-05T16:02:26.940Z,38.96
2019-05-05T16:04:58.682Z,38.68
2019-05-05T16:07:30.251Z,38.32
2019-05-05T16:10:01.397Z,38.45
2019-05-05T16:12:36.506Z,38.63
2019-05-05T16:15:25.517Z,38.51
2019-05-05T16:18:14.766Z,37.68
2019-05-05T16:20:47.569Z,36.78
2019-05-05T16:23:36.701Z,35.32
2019-05-05T16:26:08.611Z,34.66
2019-05-05T16:28:39.726Z,33.79
2019-05-05T16:31:14.413Z,33.16
2019-05-05T16:33:45.085Z,32.50
2019-05-05T16:36:16.519Z,32.03
2019-05-05T16:38:47.909Z,31.65
2019-05-05T16:41:19.431Z,31.30
2019-05-05T16:43:50.774Z,31.01
2019-05-05T16:46:23.879Z,30.73
2019-05-05T16:48:55.311Z,30.43
2019-05-05T16:51:27.889Z,30.15
2019-05-05T16:54:00.855Z,29.87
2019-05-05T16:56:33.643Z,29.62
2019-05-05T16:59:04.810Z,29.57
2019-05-05T17:01:36.265Z,29.20
2019-05-05T17:04:11.426Z,29.00
2019-05-05T17:06:40.913Z,28.90
2019-05-05T17:09:14.782Z,28.87
2019-05-05T17:11:46.677Z,28.72
2019-05-05T17:14:19.766Z,28.55
2019-05-05T17:17:07.836Z,28.44
2019-05-05T17:19:40.760Z,28.41
2019-05-05T17:22:13.911Z,28.28
2019-05-05T17:24:45.193Z,28.18
2019-05-05T17:27:16.724Z,28.10
2019-05-05T17:29:48.357Z,28.00
2019-05-05T17:32:19.714Z,27.73
2019-05-05T17:34:50.755Z,27.78
2019-05-05T17:37:23.928Z,27.62
2019-05-05T17:39:56.626Z,27.54
2019-05-05T17:42:34.638Z,27.54
2019-05-05T17:45:19.892Z,27.46
2019-05-05T17:47:53.934Z,27.45
2019-05-05T17:50:26.712Z,27.36
2019-05-05T17:53:05.435Z,27.37
2019-05-05T17:55:39.452Z,27.33
2019-05-05T17:58:10.634Z,27.25
2019-05-05T18:00:47.158Z,27.16
2019-05-05T18:03:19.245Z,27.13
2019-05-05T18:05:55.301Z,27.07
2019-05-05T18:08:36.705Z,27.00
2019-05-05T18:11:21.459Z,26.90
2019-05-05T18:14:11.034Z,26.82
2019-05-05T18:16:44.639Z,26.69
2019-05-05T18:19:15.477Z,26.62
2019-05-05T18:21:46.828Z,26.54
2019-05-05T18:24:18.081Z,26.42
2019-05-05T18:26:49.532Z,26.38
2019-05-05T18:29:20.816Z,26.34
2019-05-05T18:31:53.738Z,26.40
2019-05-05T18:34:25.938Z,26.28
2019-05-05T18:36:57.307Z,26.33
2019-05-05T18:39:29.202Z,26.33
2019-05-05T18:42:05.013Z,26.28
2019-05-05T18:44:38.101Z,26.29
2019-05-05T18:47:18.519Z,26.28
2019-05-05T18:49:49.907Z,26.19
2019-05-05T18:52:24.439Z,26.26
2019-05-05T18:54:54.679Z,26.29
2019-05-05T18:57:25.799Z,26.30
2019-05-05T18:59:56.946Z,26.23
2019-05-05T19:02:39.146Z,26.27
2019-05-05T19:05:28.827Z,26.28
2019-05-05T19:08:01.930Z,26.11
2019-05-05T19:10:33.727Z,26.10
2019-05-05T19:13:04.908Z,26.08
2019-05-05T19:15:35.994Z,26.05
2019-05-05T19:18:07.221Z,26.01
2019-05-05T19:20:46.034Z,25.96
2019-05-05T19:23:17.085Z,25.95
2019-05-05T19:25:49.811Z,25.88
2019-05-05T19:28:20.739Z,25.80
2019-05-05T19:30:51.766Z,25.79
2019-05-05T19:33:24.623Z,25.81
2019-05-05T19:35:55.766Z,25.79
2019-05-05T19:38:27.099Z,25.72
2019-05-05T19:40:58.517Z,25.63
2019-05-05T19:43:29.767Z,25.63
2019-05-05T19:46:01.274Z,25.56
2019-05-05T19:48:33.997Z,25.49
2019-05-05T19:51:06.788Z,25.46
2019-05-05T19:53:38.307Z,25.37
2019-05-05T19:56:09.667Z,25.31
2019-05-05T19:58:54.264Z,25.38
2019-05-05T20:01:13.898Z,25.31
2019-05-05T20:03:45.517Z,25.29
2019-05-05T20:06:16.599Z,25.27
2019-05-05T20:08:47.643Z,25.21
2019-05-05T20:11:18.887Z,25.16
2019-05-05T20:14:03.913Z,25.13
2019-05-05T20:16:27.634Z,25.07
2019-05-05T20:18:58.768Z,25.00
2019-05-05T20:21:30.009Z,24.94
2019-05-05T20:24:03.591Z,24.93
2019-05-05T20:26:34.898Z,24.88
2019-05-05T20:29:13.962Z,24.88
2019-05-05T20:31:40.297Z,24.89
2019-05-05T20:34:24.202Z,24.87
2019-05-05T20:37:13.975Z,24.87
2019-05-05T20:39:44.520Z,24.86
2019-05-05T20:42:15.765Z,24.80
2019-05-05T20:44:47.121Z,24.89
2019-05-05T20:47:18.050Z,24.93
2019-05-05T20:49:49.621Z,24.88
2019-05-05T20:52:21.077Z,24.86
2019-05-05T20:54:53.750Z,24.78
2019-05-05T20:57:24.908Z,24.76
2019-05-05T20:59:55.845Z,24.67
2019-05-05T21:02:26.997Z,24.61
2019-05-05T21:04:58.494Z,24.61
2019-05-05T21:07:29.845Z,24.57
2019-05-05T21:10:00.838Z,24.55
2019-05-05T21:12:41.692Z,24.40
2019-05-05T21:15:07.054Z,24.47
2019-05-05T21:17:38.380Z,24.40
2019-05-05T21:20:09.623Z,24.32
2019-05-05T21:22:45.310Z,24.22
2019-05-05T21:25:33.919Z,24.22
2019-05-05T21:28:05.082Z,24.12
2019-05-05T21:30:36.330Z,24.00
2019-05-05T21:33:07.648Z,23.78
2019-05-05T21:35:39.282Z,23.78
2019-05-05T21:38:10.533Z,23.76
2019-05-05T21:40:43.976Z,23.58
2019-05-05T21:43:15.394Z,23.58
2019-05-05T21:45:46.526Z,23.51
2019-05-05T21:48:17.781Z,23.38
2019-05-05T21:50:59.948Z,23.27
2019-05-05T21:53:35.279Z,23.16
2019-05-05T21:56:08.184Z,23.14
2019-05-05T21:58:41.021Z,23.07
2019-05-05T22:01:14.850Z,23.09
2019-05-05T22:03:46.434Z,23.12
2019-05-05T22:06:17.661Z,23.14
2019-05-05T22:08:48.871Z,23.15
2019-05-05T22:11:20.184Z,23.16
2019-05-05T22:13:53.792Z,23.17
2019-05-05T22:16:24.324Z,23.14
2019-05-05T22:18:55.797Z,23.11
2019-05-05T22:21:37.781Z,23.05
2019-05-05T22:24:22.300Z,23.04
2019-05-05T22:26:54.304Z,23.05
2019-05-05T22:29:25.421Z,22.99
2019-05-05T22:31:56.802Z,23.01
2019-05-05T22:34:27.747Z,22.98
2019-05-05T22:36:58.687Z,22.95
2019-05-05T22:39:30.119Z,22.93
2019-05-05T22:42:01.513Z,22.92
2019-05-05T22:44:33.917Z,22.87
2019-05-05T22:47:05.162Z,22.82
2019-05-05T22:49:36.552Z,22.85
2019-05-05T22:52:07.842Z,22.85
2019-05-05T22:54:39.126Z,22.84
2019-05-05T22:57:10.568Z,22.90
2019-05-05T22:59:41.898Z,22.88
2019-05-05T23:02:14.971Z,22.91
2019-05-05T23:04:47.841Z,22.97
2019-05-05T23:07:20.749Z,23.01
2019-05-05T23:09:53.897Z,23.08
2019-05-05T23:12:25.984Z,23.12
2019-05-05T23:14:57.291Z,23.21
2019-05-05T23:17:46.436Z,23.27
2019-05-05T23:20:46.006Z,23.33
2019-05-05T23:23:34.282Z,23.33
2019-05-05T23:26:07.399Z,23.33
2019-05-05T23:28:38.503Z,23.37
2019-05-05T23:31:10.102Z,23.42
2019-05-05T23:33:41.030Z,23.51
2019-05-05T23:36:14.656Z,23.52
2019-05-05T23:38:45.612Z,23.56
2019-05-05T23:41:17.049Z,23.63
2019-05-05T23:43:47.982Z,23.69
2019-05-05T23:46:19.442Z,23.69
2019-05-05T23:48:50.486Z,23.75
2019-05-05T23:51:21.533Z,23.80
2019-05-05T23:53:54.844Z,23.80
2019-05-05T23:56:25.779Z,23.81
2019-05-05T23:58:57.729Z,23.83
